Friday, January 19, 2018, 10:36 AM EST
Back to Local

K12N, Aeroflex-andover Airport

Location: Newton, NJ, United States Lat: 41.017
Local Time: 10:36 AM EST (15:36 GMT) Lon: -74.733
Time Zone: US/Eastern Elev: 583 ft

Show me the last for .
Show Coded

Time T Td Feel RH Dir Speed Gust Alt SLP Vis Weather Sky Remarks
2018-01-19 09:54 18 17 - 96 - Calm - 30.06 30.11 0 None
2018-01-19 08:54 8 7 - 95 - Calm - 30.05 30.11 0 None
2018-01-19 07:54 2 0 - 91 - Calm - 30.04 30.10 0 None
2018-01-19 06:54 2 0 - 91 - Calm - 30.04 30.10 0 6-hr Min Temp (7am): 1.0°F
6-hr Max Temp (7am): 6.1°F
2018-01-19 05:54 2 -1 - 87 - Calm - 30.03 30.09 0 None
2018-01-19 04:54 2 0 - 91 - Calm - 30.03 30.09 0 None
2018-01-19 03:54 2 -1 - 87 - Calm - 30.03 30.09 0 None
2018-01-19 02:54 4 1 - 87 - Calm - 30.02 30.07 0 None
2018-01-19 01:54 5 2 - 86 - Calm - 30.02 30.07 0 None
2018-01-19 00:54 5 2 - 86 - Calm - 30.02 30.08 0 6-hr Min Temp (1am): 3.9°F
6-hr Max Temp (1am): 23.0°F
2018-01-18 23:54 5 3 - 91 - Calm - 30.04 30.10 0 24-hr Min Temp (12am): -5.1°F
24-hr Max Temp (12am): 28.9°F
2018-01-18 22:54 8 5 - 86 - Calm - 30.06 30.11 0 None
2018-01-18 21:54 9 6 - 87 - Calm - 30.06 30.13 0 None
2018-01-18 20:54 12 9 - 87 - Calm - 30.04 30.11 0 None
2018-01-18 19:54 16 10 - 76 - Calm - 30.03 30.09 0 None
2018-01-18 18:54 23 10 18 56 Variable 3 - 30.01 30.07 0 6-hr Min Temp (7pm): 23.0°F
6-hr Max Temp (7pm): 28.9°F
2018-01-18 17:54 24 10 20 54 Variable 3 - 29.98 30.05 0 None
2018-01-18 16:54 25 10 18 52 Variable 6 - 29.96 30.02 0 None
2018-01-18 15:54 27 10 18 48 330° 9 - 29.94 30.00 0 None
2018-01-18 14:54 28 9 21 43 Variable 7 - 29.93 29.99 0 None
2018-01-18 13:54 29 9 23 42 340° 6 - 29.94 29.99 0 None
2018-01-18 12:54 27 7 19 42 330° 8 - 29.96 30.01 0 6-hr Min Temp (1pm): -4.0°F
6-hr Max Temp (1pm): 27.0°F
2018-01-18 11:54 25 8 17 47 Variable 7 - 30.00 30.06 0 Pressure falling rapidly
2018-01-18 10:54 21 9 - 58 - Calm - 30.05 30.11 0 None

Support USWX by starting your Amazon purchase here.